Gallup Municipal Airport Gallup US
ICAO: KGUP
IATA: GUP
Category: Medium
Scheduled Services: No

Elevation: 6472 ft
TransAlt. 18000 ft.

Airport Communications:
ASOS:118.375
ALBUQUERQUE RDO:122.6
CTAF/UNICOM:122.95

KGUP Zoom In..

Runways:

(A) RW 06 length 7316 ft width 100 ft
LOC 111.70 / hdg 62

(B) RW 24 length 7316 ft width 100 ft
LOC 111.70 / hdg 242

Location; KGUP
Day. 24 / Time. 01.53 Zulu
* Altimeter: 30.32
* Temperature: -05° c. -23°f.
* Wind from: 000° Speed 00 kn.
Dewpoint: -11° c.
Visibility: 10 Statute Miles.
Clouds: Clear (automated report).

KGUP 240153Z AUTO 00000KT 10SM CLR M05/M11 A3032 RMK AO2 SLP389 T10501106


Wind - Calm.

YouTube Music Video
 
jpsmedia.com for Web Design  worldairports.se 2018   terms of use